Maputo, Moçambique

02:07 PM CAT em 30 de Julho de 2015 (GMT +0200)
Maputo | | Change Station
CLOSE
Current Station
Aeroporto
Location: Maputo,
Altitude: 144 ft
Estações Meteorológicas Próximas

Elev 144 ft 25.92 °S, 32.57 °E | Updated 2 hours ago

Clear
Céu Limpo
81 °F
Aparente 81 °F
N
5
Vento Variável Vento de Oeste

Hoje
Máxima -- | Mínima -- °F
--% Possibilidade de Precip.
Ontem
Máxima -- | Mínima -- °F
Precip. -- pol
6:29 AM 5:22 PM
Lua crescente, 99% visible
Pressão 29.86 pol
Visibilidade -9999.0 milhas
Nuvens
Ponto de Orvalho 50 °F
Humidade 34%
Chuva 0.00 pol
Altura de Neve Não disponível
UV Não disponível
Pólen Não disponível
Qualidade do Ar Não disponível
Flu Activity Não disponível
METAR FQMA 301000Z 27004KT 230V330 CAVOK 27/10 Q1011 NOSIG

More Conditions Fewer Conditions

Pressão 29.86 pol
Visibilidade -9999.0 milhas
Nuvens
Ponto de Orvalho 50 °F
Humidade 34%
Chuva 0.00 pol
Altura de Neve Não disponível
UV Não disponível
Pólen Não disponível
Qualidade do Ar Não disponível
Flu Activity Não disponível
METAR FQMA 301000Z 27004KT 230V330 CAVOK 27/10 Q1011 NOSIG

More Conditions Fewer Conditions

10-Day Weather Forecast

×

Almanac

Astronomia

Jul. 30, 2015 Nascer Pôr
Hora atual
Crepúsculo civil
Crepúsculo náutico
Crepúsculo astronómico
Lua
Comprimento da luz visível
Duração do Dia
Tomorrow will be .
, % of the Moon is Illuminated

Extremos de Hoje

Altitude na localidade Altura mais baixa na localidade

Community

WunderPhotos

Upload Photos

1,842,339 fotografias inseridas!

WunderBlogs® & News

Nearby

Qualidade do Ar

  Qualidade do Ar Índice da Q.A. Poluente
Not available.

Altura da Neve

Estação altura Altitude

Actividade Sísmisca

Cidade Distância Mag. Hora & Data
Mínima magnitude apresentada é 2.5.

Temperaturas das Águas Costeiras

Local Temperatura

Stations

Estações Meteorológicas Próximas

Localização da Estação Temp. Sensação Térmica Ponto de Orvalho Humidade Vento Precip. Elev Actualizado Tipo